sensor_id;sensor_type;location;lat;lon;timestamp;pressure;altitude;pressure_sealevel;temperature;humidity
74659;BME280;63186;51.204;6.536;2022-11-20T00:02:19;100824.44;;;0.91;85.35
74659;BME280;63186;51.204;6.536;2022-11-20T00:04:44;100831.34;;;0.99;85.62
74659;BME280;63186;51.204;6.536;2022-11-20T00:07:09;100826.00;;;1.04;85.27
74659;BME280;63186;51.204;6.536;2022-11-20T00:09:35;100824.19;;;1.09;85.08
74659;BME280;63186;51.204;6.536;2022-11-20T00:12:00;100833.16;;;1.10;84.79
74659;BME280;63186;51.204;6.536;2022-11-20T00:14:25;100823.88;;;1.06;84.74
74659;BME280;63186;51.204;6.536;2022-11-20T00:16:50;100823.28;;;1.04;84.90
74659;BME280;63186;51.204;6.536;2022-11-20T00:19:15;100836.03;;;1.03;85.20
74659;BME280;63186;51.204;6.536;2022-11-20T00:21:41;100823.78;;;1.01;85.22
74659;BME280;63186;51.204;6.536;2022-11-20T00:24:08;100828.97;;;1.02;85.33
74659;BME280;63186;51.204;6.536;2022-11-20T00:26:34;100824.34;;;1.03;85.05
74659;BME280;63186;51.204;6.536;2022-11-20T00:29:00;100824.97;;;1.05;85.34
74659;BME280;63186;51.204;6.536;2022-11-20T00:31:26;100829.31;;;1.06;85.57
74659;BME280;63186;51.204;6.536;2022-11-20T00:33:52;100814.94;;;1.05;85.21
74659;BME280;63186;51.204;6.536;2022-11-20T00:36:20;100816.31;;;1.08;85.55
74659;BME280;63186;51.204;6.536;2022-11-20T00:38:46;100819.59;;;1.10;85.43
74659;BME280;63186;51.204;6.536;2022-11-20T00:41:14;100815.25;;;1.09;85.25
74659;BME280;63186;51.204;6.536;2022-11-20T00:43:40;100816.66;;;1.12;85.72
74659;BME280;63186;51.204;6.536;2022-11-20T00:46:08;100806.13;;;1.15;85.32
74659;BME280;63186;51.204;6.536;2022-11-20T00:48:34;100810.72;;;1.15;85.67
74659;BME280;63186;51.204;6.536;2022-11-20T00:50:59;100811.22;;;1.12;85.65
74659;BME280;63186;51.204;6.536;2022-11-20T00:53:25;100816.66;;;1.12;85.51
74659;BME280;63186;51.204;6.536;2022-11-20T00:55:55;100818.03;;;1.14;85.54
74659;BME280;63186;51.204;6.536;2022-11-20T00:58:22;100810.00;;;1.19;85.83
74659;BME280;63186;51.204;6.536;2022-11-20T01:00:48;100801.09;;;1.24;86.11
74659;BME280;63186;51.204;6.536;2022-11-20T01:03:15;100813.91;;;1.28;86.30
74659;BME280;63186;51.204;6.536;2022-11-20T01:05:40;100804.16;;;1.27;85.87
74659;BME280;63186;51.204;6.536;2022-11-20T01:08:06;100816.16;;;1.31;86.27
74659;BME280;63186;51.204;6.536;2022-11-20T01:10:31;100810.94;;;1.30;86.68
74659;BME280;63186;51.204;6.536;2022-11-20T01:12:56;100804.22;;;1.32;86.47
74659;BME280;63186;51.204;6.536;2022-11-20T01:15:40;100798.16;;;1.25;86.16
74659;BME280;63186;51.204;6.536;2022-11-20T01:18:06;100806.28;;;1.25;86.38
74659;BME280;63186;51.204;6.536;2022-11-20T01:20:35;100806.59;;;1.29;86.97
74659;BME280;63186;51.204;6.536;2022-11-20T01:23:01;100799.88;;;1.31;86.48
74659;BME280;63186;51.204;6.536;2022-11-20T01:25:26;100795.03;;;1.33;86.30
74659;BME280;63186;51.204;6.536;2022-11-20T01:27:51;100790.91;;;1.31;86.82
74659;BME280;63186;51.204;6.536;2022-11-20T01:30:17;100791.75;;;1.31;87.13
74659;BME280;63186;51.204;6.536;2022-11-20T01:32:42;100790.91;;;1.31;87.20
74659;BME280;63186;51.204;6.536;2022-11-20T01:35:07;100785.72;;;1.29;87.25
74659;BME280;63186;51.204;6.536;2022-11-20T01:37:34;100775.88;;;1.23;87.26
74659;BME280;63186;51.204;6.536;2022-11-20T01:40:00;100758.22;;;1.21;87.88
74659;BME280;63186;51.204;6.536;2022-11-20T01:42:25;100759.63;;;1.06;87.93
74659;BME280;63186;51.204;6.536;2022-11-20T01:48:12;100766.22;;;0.60;88.93
74659;BME280;63186;51.204;6.536;2022-11-20T01:50:37;100760.75;;;0.43;89.65
74659;BME280;63186;51.204;6.536;2022-11-20T01:53:07;100759.31;;;0.24;89.80
74659;BME280;63186;51.204;6.536;2022-11-20T01:55:39;100759.03;;;0.09;89.89
74659;BME280;63186;51.204;6.536;2022-11-20T01:58:07;100754.97;;;-0.06;90.26
74659;BME280;63186;51.204;6.536;2022-11-20T02:00:33;100759.00;;;-0.20;90.63
74659;BME280;63186;51.204;6.536;2022-11-20T02:03:01;100757.75;;;-0.29;90.72
74659;BME280;63186;51.204;6.536;2022-11-20T02:05:34;100764.00;;;-0.40;91.14
74659;BME280;63186;51.204;6.536;2022-11-20T02:08:02;100763.06;;;-0.46;91.30
74659;BME280;63186;51.204;6.536;2022-11-20T02:10:29;100762.63;;;-0.55;91.55
74659;BME280;63186;51.204;6.536;2022-11-20T02:12:54;100772.72;;;-0.62;91.71
74659;BME280;63186;51.204;6.536;2022-11-20T02:15:38;100764.88;;;-0.63;92.26
74659;BME280;63186;51.204;6.536;2022-11-20T02:18:05;100774.00;;;-0.52;92.41
74659;BME280;63186;51.204;6.536;2022-11-20T02:20:30;100771.78;;;-0.56;92.67
74659;BME280;63186;51.204;6.536;2022-11-20T02:23:00;100763.69;;;-0.67;92.18
74659;BME280;63186;51.204;6.536;2022-11-20T02:25:29;100773.69;;;-0.68;92.70
74659;BME280;63186;51.204;6.536;2022-11-20T02:27:57;100770.41;;;-0.70;92.73
74659;BME280;63186;51.204;6.536;2022-11-20T02:30:22;100762.03;;;-0.68;93.09
74659;BME280;63186;51.204;6.536;2022-11-20T02:32:47;100761.94;;;-0.85;92.57
74659;BME280;63186;51.204;6.536;2022-11-20T02:37:46;100754.06;;;-1.10;93.12
74659;BME280;63186;51.204;6.536;2022-11-20T02:40:13;100757.72;;;-1.16;92.91
74659;BME280;63186;51.204;6.536;2022-11-20T02:42:38;100750.97;;;-1.25;93.85
74659;BME280;63186;51.204;6.536;2022-11-20T02:45:04;100753.47;;;-1.24;93.70
74659;BME280;63186;51.204;6.536;2022-11-20T02:47:30;100757.44;;;-1.26;94.15
74659;BME280;63186;51.204;6.536;2022-11-20T02:49:55;100761.56;;;-1.24;94.51
74659;BME280;63186;51.204;6.536;2022-11-20T02:52:20;100759.09;;;-1.25;93.85
74659;BME280;63186;51.204;6.536;2022-11-20T02:54:46;100757.34;;;-1.20;94.31
74659;BME280;63186;51.204;6.536;2022-11-20T02:57:11;100758.03;;;-1.13;94.27
74659;BME280;63186;51.204;6.536;2022-11-20T02:59:36;100765.44;;;-1.20;93.50
74659;BME280;63186;51.204;6.536;2022-11-20T03:02:01;100758.63;;;-1.22;94.12
74659;BME280;63186;51.204;6.536;2022-11-20T03:04:27;100752.63;;;-1.24;93.67
74659;BME280;63186;51.204;6.536;2022-11-20T03:06:52;100749.94;;;-1.36;94.17
74659;BME280;63186;51.204;6.536;2022-11-20T03:09:17;100755.53;;;-1.38;94.28
74659;BME280;63186;51.204;6.536;2022-11-20T03:11:42;100756.84;;;-1.40;94.24
74659;BME280;63186;51.204;6.536;2022-11-20T03:14:08;100758.25;;;-1.38;94.37
74659;BME280;63186;51.204;6.536;2022-11-20T03:16:33;100759.16;;;-1.44;93.68
74659;BME280;63186;51.204;6.536;2022-11-20T03:18:59;100761.63;;;-1.54;93.86
74659;BME280;63186;51.204;6.536;2022-11-20T03:21:25;100765.38;;;-1.55;94.21
74659;BME280;63186;51.204;6.536;2022-11-20T03:23:50;100762.22;;;-1.52;94.20
74659;BME280;63186;51.204;6.536;2022-11-20T03:26:21;100761.16;;;-1.51;94.15
74659;BME280;63186;51.204;6.536;2022-11-20T03:28:49;100756.94;;;-1.47;94.17
74659;BME280;63186;51.204;6.536;2022-11-20T03:31:16;100748.59;;;-1.45;94.23
74659;BME280;63186;51.204;6.536;2022-11-20T03:33:42;100754.09;;;-1.52;93.99
74659;BME280;63186;51.204;6.536;2022-11-20T03:36:11;100751.41;;;-1.52;94.71
74659;BME280;63186;51.204;6.536;2022-11-20T03:38:37;100762.47;;;-1.42;94.85
74659;BME280;63186;51.204;6.536;2022-11-20T03:41:05;100764.25;;;-1.35;94.50
74659;BME280;63186;51.204;6.536;2022-11-20T03:43:31;100759.19;;;-1.32;94.40
74659;BME280;63186;51.204;6.536;2022-11-20T03:45:56;100755.56;;;-1.26;94.27
74659;BME280;63186;51.204;6.536;2022-11-20T03:48:21;100760.75;;;-1.13;94.38
74659;BME280;63186;51.204;6.536;2022-11-20T03:50:47;100757.00;;;-1.00;93.90
74659;BME280;63186;51.204;6.536;2022-11-20T03:53:13;100758.88;;;-0.89;93.84
74659;BME280;63186;51.204;6.536;2022-11-20T03:55:39;100758.78;;;-0.82;93.32
74659;BME280;63186;51.204;6.536;2022-11-20T03:58:04;100747.84;;;-0.75;92.78
74659;BME280;63186;51.204;6.536;2022-11-20T04:00:29;100750.03;;;-0.72;92.24
74659;BME280;63186;51.204;6.536;2022-11-20T04:02:58;100742.75;;;-0.72;92.43
74659;BME280;63186;51.204;6.536;2022-11-20T04:05:23;100746.28;;;-0.60;92.26
74659;BME280;63186;51.204;6.536;2022-11-20T04:07:49;100740.88;;;-0.60;92.39
74659;BME280;63186;51.204;6.536;2022-11-20T04:10:14;100740.66;;;-0.58;92.12
74659;BME280;63186;51.204;6.536;2022-11-20T04:12:39;100738.97;;;-0.47;92.02
74659;BME280;63186;51.204;6.536;2022-11-20T04:15:05;100743.91;;;-0.44;91.94
74659;BME280;63186;51.204;6.536;2022-11-20T04:17:30;100738.59;;;-0.39;92.07
74659;BME280;63186;51.204;6.536;2022-11-20T04:19:55;100734.59;;;-0.37;91.54
74659;BME280;63186;51.204;6.536;2022-11-20T04:22:21;100731.66;;;-0.35;91.38
74659;BME280;63186;51.204;6.536;2022-11-20T04:24:46;100734.50;;;-0.42;91.27
74659;BME280;63186;51.204;6.536;2022-11-20T04:27:11;100727.09;;;-0.46;91.46
74659;BME280;63186;51.204;6.536;2022-11-20T04:29:36;100724.75;;;-0.43;91.51
74659;BME280;63186;51.204;6.536;2022-11-20T04:32:02;100728.75;;;-0.45;91.58
74659;BME280;63186;51.204;6.536;2022-11-20T04:34:27;100736.63;;;-0.44;91.57
74659;BME280;63186;51.204;6.536;2022-11-20T04:36:52;100743.81;;;-0.49;91.19
74659;BME280;63186;51.204;6.536;2022-11-20T04:39:17;100740.84;;;-0.48;91.46
74659;BME280;63186;51.204;6.536;2022-11-20T04:41:43;100744.38;;;-0.47;91.07
74659;BME280;63186;51.204;6.536;2022-11-20T04:44:08;100729.56;;;-0.45;91.92
74659;BME280;63186;51.204;6.536;2022-11-20T04:46:36;100736.94;;;-0.40;91.16
74659;BME280;63186;51.204;6.536;2022-11-20T04:49:02;100732.59;;;-0.41;91.51
74659;BME280;63186;51.204;6.536;2022-11-20T04:51:28;100722.75;;;-0.47;91.38
74659;BME280;63186;51.204;6.536;2022-11-20T04:53:53;100728.41;;;-0.49;91.23
74659;BME280;63186;51.204;6.536;2022-11-20T04:56:18;100726.19;;;-0.52;90.69
74659;BME280;63186;51.204;6.536;2022-11-20T04:58:44;100722.41;;;-0.51;91.30
74659;BME280;63186;51.204;6.536;2022-11-20T05:01:17;100731.81;;;-0.53;91.45
74659;BME280;63186;51.204;6.536;2022-11-20T05:03:43;100724.28;;;-0.51;91.45
74659;BME280;63186;51.204;6.536;2022-11-20T05:06:11;100732.06;;;-0.55;91.48
74659;BME280;63186;51.204;6.536;2022-11-20T05:08:37;100734.50;;;-0.53;91.77
74659;BME280;63186;51.204;6.536;2022-11-20T05:11:04;100727.00;;;-0.51;91.81
74659;BME280;63186;51.204;6.536;2022-11-20T05:13:30;100730.75;;;-0.52;91.51
74659;BME280;63186;51.204;6.536;2022-11-20T05:15:55;100731.91;;;-0.48;91.85
74659;BME280;63186;51.204;6.536;2022-11-20T05:18:25;100734.50;;;-0.42;91.66
74659;BME280;63186;51.204;6.536;2022-11-20T05:20:55;100730.72;;;-0.41;91.25
74659;BME280;63186;51.204;6.536;2022-11-20T05:23:21;100727.31;;;-0.36;91.84
74659;BME280;63186;51.204;6.536;2022-11-20T05:25:46;100718.69;;;-0.33;91.88
74659;BME280;63186;51.204;6.536;2022-11-20T05:28:11;100728.25;;;-0.31;91.46
74659;BME280;63186;51.204;6.536;2022-11-20T05:30:36;100716.59;;;-0.31;91.41
74659;BME280;63186;51.204;6.536;2022-11-20T05:33:02;100720.44;;;-0.27;91.68
74659;BME280;63186;51.204;6.536;2022-11-20T05:35:27;100722.19;;;-0.21;91.55
74659;BME280;63186;51.204;6.536;2022-11-20T05:37:52;100722.78;;;-0.19;91.50
74659;BME280;63186;51.204;6.536;2022-11-20T05:40:18;100719.03;;;-0.18;91.31
74659;BME280;63186;51.204;6.536;2022-11-20T05:42:43;100720.41;;;-0.15;91.39
74659;BME280;63186;51.204;6.536;2022-11-20T05:45:08;100727.47;;;-0.14;91.33
74659;BME280;63186;51.204;6.536;2022-11-20T05:47:34;100726.19;;;-0.12;91.17
74659;BME280;63186;51.204;6.536;2022-11-20T05:50:00;100731.44;;;-0.05;91.37
74659;BME280;63186;51.204;6.536;2022-11-20T05:52:29;100729.69;;;-0.11;90.95
74659;BME280;63186;51.204;6.536;2022-11-20T05:54:55;100724.88;;;-0.09;91.20
74659;BME280;63186;51.204;6.536;2022-11-20T05:57:20;100722.41;;;-0.11;90.93
74659;BME280;63186;51.204;6.536;2022-11-20T05:59:45;100722.28;;;-0.16;91.15
74659;BME280;63186;51.204;6.536;2022-11-20T06:02:11;100723.13;;;-0.15;90.87
74659;BME280;63186;51.204;6.536;2022-11-20T06:04:36;100723.38;;;-0.17;91.26
74659;BME280;63186;51.204;6.536;2022-11-20T06:07:01;100719.50;;;-0.21;91.46
74659;BME280;63186;51.204;6.536;2022-11-20T06:09:26;100707.88;;;-0.33;91.37
74659;BME280;63186;51.204;6.536;2022-11-20T06:11:52;100706.28;;;-0.46;91.53
74659;BME280;63186;51.204;6.536;2022-11-20T06:14:17;100715.72;;;-0.60;91.85
74659;BME280;63186;51.204;6.536;2022-11-20T06:16:42;100707.88;;;-0.73;92.25
74659;BME280;63186;51.204;6.536;2022-11-20T06:19:07;100717.84;;;-0.74;92.56
74659;BME280;63186;51.204;6.536;2022-11-20T06:21:33;100717.28;;;-0.76;92.81
74659;BME280;63186;51.204;6.536;2022-11-20T06:23:58;100726.34;;;-0.82;92.89
74659;BME280;63186;51.204;6.536;2022-11-20T06:26:26;100718.94;;;-0.87;92.96
74659;BME280;63186;51.204;6.536;2022-11-20T06:28:52;100729.16;;;-0.89;93.30
74659;BME280;63186;51.204;6.536;2022-11-20T06:31:20;100724.81;;;-0.90;93.28
74659;BME280;63186;51.204;6.536;2022-11-20T06:33:46;100731.97;;;-0.84;93.32
74659;BME280;63186;51.204;6.536;2022-11-20T06:36:14;100729.38;;;-0.78;93.22
74659;BME280;63186;51.204;6.536;2022-11-20T06:38:40;100734.66;;;-0.72;93.51
74659;BME280;63186;51.204;6.536;2022-11-20T06:41:10;100734.06;;;-0.74;93.18
74659;BME280;63186;51.204;6.536;2022-11-20T06:43:36;100730.78;;;-0.76;92.95
74659;BME280;63186;51.204;6.536;2022-11-20T06:46:01;100735.13;;;-0.75;93.10
74659;BME280;63186;51.204;6.536;2022-11-20T06:48:27;100740.78;;;-0.65;93.33
74659;BME280;63186;51.204;6.536;2022-11-20T06:50:53;100733.56;;;-0.59;93.18
74659;BME280;63186;51.204;6.536;2022-11-20T06:53:18;100742.03;;;-0.56;92.94
74659;BME280;63186;51.204;6.536;2022-11-20T06:55:45;100745.31;;;-0.53;93.07
74659;BME280;63186;51.204;6.536;2022-11-20T06:58:11;100747.09;;;-0.47;92.95
74659;BME280;63186;51.204;6.536;2022-11-20T07:00:36;100746.69;;;-0.39;92.92
74659;BME280;63186;51.204;6.536;2022-11-20T07:03:06;100748.13;;;-0.37;92.52
74659;BME280;63186;51.204;6.536;2022-11-20T07:05:32;100749.88;;;-0.31;92.66
74659;BME280;63186;51.204;6.536;2022-11-20T07:07:57;100754.72;;;-0.33;92.39
74659;BME280;63186;51.204;6.536;2022-11-20T07:10:23;100761.28;;;-0.29;92.60
74659;BME280;63186;51.204;6.536;2022-11-20T07:12:49;100754.91;;;-0.22;92.89
74659;BME280;63186;51.204;6.536;2022-11-20T07:15:15;100763.25;;;-0.12;92.81
74659;BME280;63186;51.204;6.536;2022-11-20T07:17:41;100750.53;;;-0.12;92.83
74659;BME280;63186;51.204;6.536;2022-11-20T07:20:06;100757.44;;;-0.04;92.60
74659;BME280;63186;51.204;6.536;2022-11-20T07:22:32;100760.56;;;0.05;92.29
74659;BME280;63186;51.204;6.536;2022-11-20T07:24:57;100763.88;;;0.07;92.18
74659;BME280;63186;51.204;6.536;2022-11-20T07:27:22;100759.97;;;0.14;92.32
74659;BME280;63186;51.204;6.536;2022-11-20T07:29:47;100755.69;;;0.18;91.96
74659;BME280;63186;51.204;6.536;2022-11-20T07:32:13;100749.47;;;0.18;91.87
74659;BME280;63186;51.204;6.536;2022-11-20T07:34:38;100744.97;;;0.23;92.16
74659;BME280;63186;51.204;6.536;2022-11-20T07:37:03;100747.34;;;0.20;91.36
74659;BME280;63186;51.204;6.536;2022-11-20T07:39:28;100749.22;;;0.19;92.06
74659;BME280;63186;51.204;6.536;2022-11-20T07:41:54;100751.75;;;0.26;92.13
74659;BME280;63186;51.204;6.536;2022-11-20T07:44:19;100749.41;;;0.30;91.80
74659;BME280;63186;51.204;6.536;2022-11-20T07:46:44;100739.41;;;0.30;91.84
74659;BME280;63186;51.204;6.536;2022-11-20T07:49:09;100734.69;;;0.25;91.71
74659;BME280;63186;51.204;6.536;2022-11-20T07:51:35;100735.88;;;0.30;91.92
74659;BME280;63186;51.204;6.536;2022-11-20T07:54:00;100735.41;;;0.33;91.84
74659;BME280;63186;51.204;6.536;2022-11-20T07:56:25;100739.59;;;0.40;92.01
74659;BME280;63186;51.204;6.536;2022-11-20T07:58:50;100740.81;;;0.49;91.72
74659;BME280;63186;51.204;6.536;2022-11-20T08:01:16;100739.03;;;0.55;91.50
74659;BME280;63186;51.204;6.536;2022-11-20T08:03:41;100733.91;;;0.59;91.38
74659;BME280;63186;51.204;6.536;2022-11-20T08:06:07;100734.06;;;0.52;90.71
74659;BME280;63186;51.204;6.536;2022-11-20T08:08:32;100742.31;;;0.57;91.08
74659;BME280;63186;51.204;6.536;2022-11-20T08:10:57;100739.34;;;0.59;91.16
74659;BME280;63186;51.204;6.536;2022-11-20T08:13:41;100735.19;;;0.68;91.41
74659;BME280;63186;51.204;6.536;2022-11-20T08:16:25;100736.91;;;0.74;90.91
74659;BME280;63186;51.204;6.536;2022-11-20T08:18:50;100739.25;;;0.70;90.76
74659;BME280;63186;51.204;6.536;2022-11-20T08:21:16;100742.31;;;0.74;91.00
74659;BME280;63186;51.204;6.536;2022-11-20T08:23:41;100733.22;;;0.80;90.94
74659;BME280;63186;51.204;6.536;2022-11-20T08:26:06;100735.50;;;0.88;91.32
74659;BME280;63186;51.204;6.536;2022-11-20T08:28:31;100742.97;;;0.98;91.33
74659;BME280;63186;51.204;6.536;2022-11-20T08:31:00;100735.41;;;1.00;90.74
74659;BME280;63186;51.204;6.536;2022-11-20T08:33:25;100733.78;;;0.99;90.84
74659;BME280;63186;51.204;6.536;2022-11-20T08:35:51;100724.66;;;1.05;90.85
74659;BME280;63186;51.204;6.536;2022-11-20T08:38:16;100733.81;;;1.21;90.60
74659;BME280;63186;51.204;6.536;2022-11-20T08:40:41;100739.97;;;1.33;90.36
74659;BME280;63186;51.204;6.536;2022-11-20T08:43:26;100738.56;;;1.30;90.10
74659;BME280;63186;51.204;6.536;2022-11-20T08:45:52;100730.19;;;1.32;90.18
74659;BME280;63186;51.204;6.536;2022-11-20T08:48:17;100748.41;;;1.36;89.87
74659;BME280;63186;51.204;6.536;2022-11-20T08:50:42;100740.25;;;1.36;89.83
74659;BME280;63186;51.204;6.536;2022-11-20T08:53:07;100746.34;;;1.44;89.78
74659;BME280;63186;51.204;6.536;2022-11-20T08:55:33;100746.09;;;1.45;89.43
74659;BME280;63186;51.204;6.536;2022-11-20T08:58:04;100740.59;;;1.40;89.47
74659;BME280;63186;51.204;6.536;2022-11-20T09:00:29;100744.75;;;1.48;89.82
74659;BME280;63186;51.204;6.536;2022-11-20T09:02:55;100739.41;;;1.53;89.50
74659;BME280;63186;51.204;6.536;2022-11-20T09:05:20;100738.59;;;1.52;89.74
74659;BME280;63186;51.204;6.536;2022-11-20T09:07:45;100740.59;;;1.62;89.95
74659;BME280;63186;51.204;6.536;2022-11-20T09:10:11;100743.94;;;1.69;89.65
74659;BME280;63186;51.204;6.536;2022-11-20T09:12:36;100731.53;;;1.73;89.98
74659;BME280;63186;51.204;6.536;2022-11-20T09:15:01;100740.00;;;1.77;89.60
74659;BME280;63186;51.204;6.536;2022-11-20T09:17:27;100723.75;;;1.82;89.53
74659;BME280;63186;51.204;6.536;2022-11-20T09:19:52;100715.59;;;1.82;89.84
74659;BME280;63186;51.204;6.536;2022-11-20T09:22:17;100719.78;;;1.89;89.74
74659;BME280;63186;51.204;6.536;2022-11-20T09:24:43;100724.94;;;1.91;90.07
74659;BME280;63186;51.204;6.536;2022-11-20T09:27:08;100723.34;;;1.95;90.20
74659;BME280;63186;51.204;6.536;2022-11-20T09:29:33;100713.91;;;1.98;90.13
74659;BME280;63186;51.204;6.536;2022-11-20T09:31:58;100713.69;;;2.04;90.16
74659;BME280;63186;51.204;6.536;2022-11-20T09:34:24;100712.41;;;2.12;90.36
74659;BME280;63186;51.204;6.536;2022-11-20T09:36:49;100708.72;;;2.23;89.92
74659;BME280;63186;51.204;6.536;2022-11-20T09:39:14;100695.19;;;2.28;89.61
74659;BME280;63186;51.204;6.536;2022-11-20T09:47:12;100711.97;;;2.84;88.80
74659;BME280;63186;51.204;6.536;2022-11-20T09:50:43;100716.56;;;2.84;88.73
74659;BME280;63186;51.204;6.536;2022-11-20T09:55:15;100713.47;;;2.70;88.65
74659;BME280;63186;51.204;6.536;2022-11-20T09:57:44;100720.28;;;2.67;89.26
74659;BME280;63186;51.204;6.536;2022-11-20T10:00:13;100725.94;;;2.66;89.78
74659;BME280;63186;51.204;6.536;2022-11-20T10:05:37;100716.97;;;2.65;89.68
74659;BME280;63186;51.204;6.536;2022-11-20T10:10:54;100713.97;;;2.67;90.12
74659;BME280;63186;51.204;6.536;2022-11-20T10:13:32;100712.41;;;2.71;90.02
74659;BME280;63186;51.204;6.536;2022-11-20T10:16:17;100693.91;;;2.73;90.22
74659;BME280;63186;51.204;6.536;2022-11-20T10:21:59;100672.53;;;2.87;90.04
74659;BME280;63186;51.204;6.536;2022-11-20T10:29:34;100674.28;;;3.03;89.79
74659;BME280;63186;51.204;6.536;2022-11-20T10:32:11;100658.50;;;3.00;89.60
74659;BME280;63186;51.204;6.536;2022-11-20T10:37:26;100656.06;;;3.04;90.03
74659;BME280;63186;51.204;6.536;2022-11-20T10:43:03;100645.81;;;3.16;89.94
74659;BME280;63186;51.204;6.536;2022-11-20T10:48:20;100642.06;;;3.32;88.97
74659;BME280;63186;51.204;6.536;2022-11-20T10:53:42;100627.41;;;3.43;88.72
74659;BME280;63186;51.204;6.536;2022-11-20T10:56:21;100622.53;;;3.50;88.77
74659;BME280;63186;51.204;6.536;2022-11-20T11:01:41;100614.41;;;3.56;88.33
74659;BME280;63186;51.204;6.536;2022-11-20T11:07:24;100613.00;;;3.48;88.05
74659;BME280;63186;51.204;6.536;2022-11-20T11:09:54;100606.22;;;3.50;88.24
74659;BME280;63186;51.204;6.536;2022-11-20T11:12:23;100604.56;;;3.44;87.92
74659;BME280;63186;51.204;6.536;2022-11-20T11:14:49;100601.03;;;3.44;88.48
74659;BME280;63186;51.204;6.536;2022-11-20T11:17:30;100589.88;;;3.50;88.42
74659;BME280;63186;51.204;6.536;2022-11-20T11:20:20;100589.91;;;3.61;87.55
74659;BME280;63186;51.204;6.536;2022-11-20T11:22:51;100589.38;;;3.69;87.75
74659;BME280;63186;51.204;6.536;2022-11-20T11:27:48;100579.31;;;3.69;87.43
74659;BME280;63186;51.204;6.536;2022-11-20T11:30:16;100578.22;;;3.65;87.39
74659;BME280;63186;51.204;6.536;2022-11-20T11:32:42;100567.88;;;3.62;87.15
74659;BME280;63186;51.204;6.536;2022-11-20T11:35:27;100562.16;;;3.64;87.11
74659;BME280;63186;51.204;6.536;2022-11-20T11:38:02;100559.72;;;3.67;87.04
74659;BME280;63186;51.204;6.536;2022-11-20T11:40:31;100549.38;;;3.69;87.25
74659;BME280;63186;51.204;6.536;2022-11-20T11:42:59;100552.09;;;3.74;87.15
74659;BME280;63186;51.204;6.536;2022-11-20T11:45:27;100534.94;;;3.74;87.05
74659;BME280;63186;51.204;6.536;2022-11-20T11:47:54;100547.47;;;3.75;87.27
74659;BME280;63186;51.204;6.536;2022-11-20T11:50:23;100536.84;;;3.73;87.26
74659;BME280;63186;51.204;6.536;2022-11-20T12:04:16;100518.88;;;3.83;86.99
74659;BME280;63186;51.204;6.536;2022-11-20T12:06:46;100510.72;;;3.88;87.08
74659;BME280;63186;51.204;6.536;2022-11-20T12:09:13;100510.72;;;3.93;86.93
74659;BME280;63186;51.204;6.536;2022-11-20T12:11:44;100508.00;;;3.98;86.93
74659;BME280;63186;51.204;6.536;2022-11-20T12:14:18;100499.00;;;3.97;86.54
74659;BME280;63186;51.204;6.536;2022-11-20T12:16:49;100502.81;;;4.01;86.85
74659;BME280;63186;51.204;6.536;2022-11-20T12:19:15;100500.91;;;3.97;86.73
74659;BME280;63186;51.204;6.536;2022-11-20T12:21:56;100499.28;;;3.96;86.55
74659;BME280;63186;51.204;6.536;2022-11-20T12:30:01;100494.91;;;3.90;87.37
74659;BME280;63186;51.204;6.536;2022-11-20T12:38:19;100481.03;;;3.96;87.53
74659;BME280;63186;51.204;6.536;2022-11-20T12:43:24;100472.84;;;3.96;87.57
74659;BME280;63186;51.204;6.536;2022-11-20T12:46:19;100466.31;;;3.97;88.33
74659;BME280;63186;51.204;6.536;2022-11-20T12:49:15;100457.31;;;3.97;89.47
74659;BME280;63186;51.204;6.536;2022-11-20T13:08:20;100411.03;;;3.97;90.31
74659;BME280;63186;51.204;6.536;2022-11-20T13:10:52;100406.13;;;3.99;89.34
74659;BME280;63186;51.204;6.536;2022-11-20T13:16:29;100397.16;;;3.98;89.17
74659;BME280;63186;51.204;6.536;2022-11-20T13:19:02;100399.31;;;3.96;89.65
74659;BME280;63186;51.204;6.536;2022-11-20T13:21:42;100393.88;;;3.96;89.76
74659;BME280;63186;51.204;6.536;2022-11-20T13:26:59;100390.84;;;4.03;89.83
74659;BME280;63186;51.204;6.536;2022-11-20T13:29:24;100384.06;;;4.00;89.30
74659;BME280;63186;51.204;6.536;2022-11-20T13:31:49;100379.16;;;4.02;89.98
74659;BME280;63186;51.204;6.536;2022-11-20T13:34:26;100383.25;;;4.05;90.06
74659;BME280;63186;51.204;6.536;2022-11-20T13:36:53;100377.78;;;4.05;89.89
74659;BME280;63186;51.204;6.536;2022-11-20T13:39:30;100372.06;;;4.06;89.52
74659;BME280;63186;51.204;6.536;2022-11-20T13:41:59;100367.16;;;4.08;89.84
74659;BME280;63186;51.204;6.536;2022-11-20T13:44:38;100366.03;;;4.09;89.75
74659;BME280;63186;51.204;6.536;2022-11-20T13:47:20;100350.53;;;4.10;90.04
74659;BME280;63186;51.204;6.536;2022-11-20T13:49:47;100347.25;;;4.13;89.94
74659;BME280;63186;51.204;6.536;2022-11-20T13:58:46;100332.25;;;4.16;89.34
74659;BME280;63186;51.204;6.536;2022-11-20T14:01:24;100331.97;;;4.17;89.69
74659;BME280;63186;51.204;6.536;2022-11-20T14:03:50;100322.44;;;4.15;89.02
74659;BME280;63186;51.204;6.536;2022-11-20T14:06:39;100320.25;;;4.17;89.58
74659;BME280;63186;51.204;6.536;2022-11-20T14:09:24;100309.63;;;4.15;89.38
74659;BME280;63186;51.204;6.536;2022-11-20T14:11:49;100301.75;;;4.14;89.66
74659;BME280;63186;51.204;6.536;2022-11-20T14:14:17;100294.66;;;4.18;89.58
74659;BME280;63186;51.204;6.536;2022-11-20T14:16:44;100287.31;;;4.18;89.55
74659;BME280;63186;51.204;6.536;2022-11-20T14:19:29;100288.13;;;4.19;89.19
74659;BME280;63186;51.204;6.536;2022-11-20T14:22:22;100278.56;;;4.16;88.88
74659;BME280;63186;51.204;6.536;2022-11-20T14:25:00;100279.94;;;4.19;89.32
74659;BME280;63186;51.204;6.536;2022-11-20T14:27:25;100272.59;;;4.19;89.17
74659;BME280;63186;51.204;6.536;2022-11-20T14:29:51;100277.75;;;4.21;88.99
74659;BME280;63186;51.204;6.536;2022-11-20T14:32:19;100266.03;;;4.20;89.20
74659;BME280;63186;51.204;6.536;2022-11-20T14:34:46;100262.22;;;4.21;88.83
74659;BME280;63186;51.204;6.536;2022-11-20T14:37:17;100262.22;;;4.16;89.00
74659;BME280;63186;51.204;6.536;2022-11-20T14:39:49;100253.25;;;4.16;88.93
74659;BME280;63186;51.204;6.536;2022-11-20T14:42:16;100252.97;;;4.17;89.15